sensor_id;sensor_type;location;lat;lon;timestamp;temperature;humidity
79762;DHT22;69249;42.122;24.734;2023-05-07T00:01:45;18.00;62.50
79762;DHT22;69249;42.122;24.734;2023-05-07T00:04:11;18.00;63.10
79762;DHT22;69249;42.122;24.734;2023-05-07T00:06:37;17.80;63.90
79762;DHT22;69249;42.122;24.734;2023-05-07T00:09:02;17.90;64.00
79762;DHT22;69249;42.122;24.734;2023-05-07T00:11:29;17.80;64.00
79762;DHT22;69249;42.122;24.734;2023-05-07T00:13:55;17.90;63.70
79762;DHT22;69249;42.122;24.734;2023-05-07T00:16:21;17.80;64.00
79762;DHT22;69249;42.122;24.734;2023-05-07T00:18:46;17.80;64.10
79762;DHT22;69249;42.122;24.734;2023-05-07T00:21:12;17.80;63.60
79762;DHT22;69249;42.122;24.734;2023-05-07T00:23:38;17.70;63.20
79762;DHT22;69249;42.122;24.734;2023-05-07T00:26:04;17.70;63.80
79762;DHT22;69249;42.122;24.734;2023-05-07T00:28:30;17.70;63.50
79762;DHT22;69249;42.122;24.734;2023-05-07T00:30:56;17.80;63.10
79762;DHT22;69249;42.122;24.734;2023-05-07T00:33:21;17.80;62.70
79762;DHT22;69249;42.122;24.734;2023-05-07T00:35:47;17.80;62.30
79762;DHT22;69249;42.122;24.734;2023-05-07T00:38:13;17.90;62.00
79762;DHT22;69249;42.122;24.734;2023-05-07T00:40:39;17.90;61.70
79762;DHT22;69249;42.122;24.734;2023-05-07T00:43:05;17.80;61.80
79762;DHT22;69249;42.122;24.734;2023-05-07T00:45:30;17.90;61.30
79762;DHT22;69249;42.122;24.734;2023-05-07T00:47:57;17.80;61.20
79762;DHT22;69249;42.122;24.734;2023-05-07T00:50:24;17.80;61.10
79762;DHT22;69249;42.122;24.734;2023-05-07T00:52:50;17.80;61.20
79762;DHT22;69249;42.122;24.734;2023-05-07T00:55:16;17.80;61.30
79762;DHT22;69249;42.122;24.734;2023-05-07T00:57:42;17.80;61.20
79762;DHT22;69249;42.122;24.734;2023-05-07T01:00:09;17.70;61.20
79762;DHT22;69249;42.122;24.734;2023-05-07T01:02:35;17.70;60.80
79762;DHT22;69249;42.122;24.734;2023-05-07T01:05:03;17.70;61.10
79762;DHT22;69249;42.122;24.734;2023-05-07T01:07:32;17.60;61.00
79762;DHT22;69249;42.122;24.734;2023-05-07T01:09:58;17.50;61.00
79762;DHT22;69249;42.122;24.734;2023-05-07T01:12:24;17.50;61.00
79762;DHT22;69249;42.122;24.734;2023-05-07T01:14:51;17.40;61.60
79762;DHT22;69249;42.122;24.734;2023-05-07T01:17:17;17.30;62.00
79762;DHT22;69249;42.122;24.734;2023-05-07T01:19:43;17.40;61.60
79762;DHT22;69249;42.122;24.734;2023-05-07T01:22:10;17.40;61.50
79762;DHT22;69249;42.122;24.734;2023-05-07T01:24:37;17.40;61.10
79762;DHT22;69249;42.122;24.734;2023-05-07T01:27:03;17.40;60.90
79762;DHT22;69249;42.122;24.734;2023-05-07T01:29:29;17.40;61.20
79762;DHT22;69249;42.122;24.734;2023-05-07T01:31:57;17.50;61.10
79762;DHT22;69249;42.122;24.734;2023-05-07T01:34:25;17.50;61.40
79762;DHT22;69249;42.122;24.734;2023-05-07T01:36:53;17.50;61.00
79762;DHT22;69249;42.122;24.734;2023-05-07T01:39:19;17.40;61.20
79762;DHT22;69249;42.122;24.734;2023-05-07T01:41:45;17.50;60.90
79762;DHT22;69249;42.122;24.734;2023-05-07T01:44:12;17.40;61.40
79762;DHT22;69249;42.122;24.734;2023-05-07T01:46:39;17.50;61.50
79762;DHT22;69249;42.122;24.734;2023-05-07T01:49:04;17.60;60.90
79762;DHT22;69249;42.122;24.734;2023-05-07T01:51:30;17.60;60.70
79762;DHT22;69249;42.122;24.734;2023-05-07T01:53:56;17.60;60.10
79762;DHT22;69249;42.122;24.734;2023-05-07T01:56:23;17.60;60.00
79762;DHT22;69249;42.122;24.734;2023-05-07T01:58:49;17.50;60.80
79762;DHT22;69249;42.122;24.734;2023-05-07T02:01:16;17.70;60.50
79762;DHT22;69249;42.122;24.734;2023-05-07T02:03:42;17.60;61.10
79762;DHT22;69249;42.122;24.734;2023-05-07T02:06:07;17.50;61.50
79762;DHT22;69249;42.122;24.734;2023-05-07T02:08:33;17.50;62.10
79762;DHT22;69249;42.122;24.734;2023-05-07T02:10:59;17.50;62.40
79762;DHT22;69249;42.122;24.734;2023-05-07T02:13:28;17.50;62.70
79762;DHT22;69249;42.122;24.734;2023-05-07T02:15:54;17.60;62.10
79762;DHT22;69249;42.122;24.734;2023-05-07T02:18:19;17.40;62.90
79762;DHT22;69249;42.122;24.734;2023-05-07T02:20:45;17.30;62.90
79762;DHT22;69249;42.122;24.734;2023-05-07T02:23:11;17.40;62.10
79762;DHT22;69249;42.122;24.734;2023-05-07T02:25:36;17.40;62.10
79762;DHT22;69249;42.122;24.734;2023-05-07T02:28:02;17.30;62.40
79762;DHT22;69249;42.122;24.734;2023-05-07T02:30:28;17.40;62.20
79762;DHT22;69249;42.122;24.734;2023-05-07T02:32:54;17.20;63.00
79762;DHT22;69249;42.122;24.734;2023-05-07T02:35:20;17.00;63.60
79762;DHT22;69249;42.122;24.734;2023-05-07T02:37:45;17.10;63.40
79762;DHT22;69249;42.122;24.734;2023-05-07T02:40:11;16.70;64.30
79762;DHT22;69249;42.122;24.734;2023-05-07T02:42:37;16.70;64.90
79762;DHT22;69249;42.122;24.734;2023-05-07T02:45:03;16.80;64.40
79762;DHT22;69249;42.122;24.734;2023-05-07T02:47:29;16.80;64.70
79762;DHT22;69249;42.122;24.734;2023-05-07T02:49:55;16.60;65.70
79762;DHT22;69249;42.122;24.734;2023-05-07T02:52:21;16.60;65.80
79762;DHT22;69249;42.122;24.734;2023-05-07T02:54:47;16.60;65.80
79762;DHT22;69249;42.122;24.734;2023-05-07T02:57:12;16.50;66.10
79762;DHT22;69249;42.122;24.734;2023-05-07T02:59:38;16.50;66.50
79762;DHT22;69249;42.122;24.734;2023-05-07T03:02:04;16.30;67.50
79762;DHT22;69249;42.122;24.734;2023-05-07T03:04:29;16.30;67.80
79762;DHT22;69249;42.122;24.734;2023-05-07T03:06:55;16.30;68.20
79762;DHT22;69249;42.122;24.734;2023-05-07T03:09:21;16.20;68.60
79762;DHT22;69249;42.122;24.734;2023-05-07T03:11:46;15.90;69.70
79762;DHT22;69249;42.122;24.734;2023-05-07T03:14:12;16.00;69.80
79762;DHT22;69249;42.122;24.734;2023-05-07T03:16:38;15.90;69.80
79762;DHT22;69249;42.122;24.734;2023-05-07T03:19:04;15.80;70.00
79762;DHT22;69249;42.122;24.734;2023-05-07T03:21:30;15.80;70.00
79762;DHT22;69249;42.122;24.734;2023-05-07T03:23:56;15.80;70.10
79762;DHT22;69249;42.122;24.734;2023-05-07T03:26:22;15.70;70.50
79762;DHT22;69249;42.122;24.734;2023-05-07T03:28:47;15.60;70.70
79762;DHT22;69249;42.122;24.734;2023-05-07T03:31:13;15.50;71.00
79762;DHT22;69249;42.122;24.734;2023-05-07T03:36:17;15.50;70.90
79762;DHT22;69249;42.122;24.734;2023-05-07T03:38:43;15.40;71.30
79762;DHT22;69249;42.122;24.734;2023-05-07T03:41:09;15.30;71.50
79762;DHT22;69249;42.122;24.734;2023-05-07T03:43:34;15.40;71.10
79762;DHT22;69249;42.122;24.734;2023-05-07T03:46:00;15.60;70.20
79762;DHT22;69249;42.122;24.734;2023-05-07T03:48:26;15.80;68.90
79762;DHT22;69249;42.122;24.734;2023-05-07T03:50:51;15.80;68.30
79762;DHT22;69249;42.122;24.734;2023-05-07T03:53:17;15.90;67.80
79762;DHT22;69249;42.122;24.734;2023-05-07T03:55:43;15.90;67.90
79762;DHT22;69249;42.122;24.734;2023-05-07T03:58:08;15.90;67.90
79762;DHT22;69249;42.122;24.734;2023-05-07T04:00:34;15.80;67.80
79762;DHT22;69249;42.122;24.734;2023-05-07T04:03:04;15.70;67.80
79762;DHT22;69249;42.122;24.734;2023-05-07T04:05:30;15.70;67.90
79762;DHT22;69249;42.122;24.734;2023-05-07T04:07:57;15.80;67.20
79762;DHT22;69249;42.122;24.734;2023-05-07T04:10:23;16.00;66.40
79762;DHT22;69249;42.122;24.734;2023-05-07T04:12:48;15.90;66.40
79762;DHT22;69249;42.122;24.734;2023-05-07T04:15:14;16.00;65.70
79762;DHT22;69249;42.122;24.734;2023-05-07T04:17:40;16.10;65.20
79762;DHT22;69249;42.122;24.734;2023-05-07T04:20:09;16.10;65.00
79762;DHT22;69249;42.122;24.734;2023-05-07T04:22:36;16.20;64.90
79762;DHT22;69249;42.122;24.734;2023-05-07T04:25:02;16.10;65.00
79762;DHT22;69249;42.122;24.734;2023-05-07T04:27:28;16.10;65.00
79762;DHT22;69249;42.122;24.734;2023-05-07T04:29:54;16.30;64.40
79762;DHT22;69249;42.122;24.734;2023-05-07T04:32:22;16.40;63.30
79762;DHT22;69249;42.122;24.734;2023-05-07T04:34:48;16.60;62.70
79762;DHT22;69249;42.122;24.734;2023-05-07T04:37:13;16.70;62.20
79762;DHT22;69249;42.122;24.734;2023-05-07T04:39:39;16.70;62.00
79762;DHT22;69249;42.122;24.734;2023-05-07T04:42:05;16.70;61.90
79762;DHT22;69249;42.122;24.734;2023-05-07T04:44:34;16.60;62.10
79762;DHT22;69249;42.122;24.734;2023-05-07T04:47:00;16.60;62.20
79762;DHT22;69249;42.122;24.734;2023-05-07T04:49:26;16.50;62.80
79762;DHT22;69249;42.122;24.734;2023-05-07T04:51:51;16.40;63.30
79762;DHT22;69249;42.122;24.734;2023-05-07T04:54:17;16.60;62.70
79762;DHT22;69249;42.122;24.734;2023-05-07T04:56:43;16.70;62.10
79762;DHT22;69249;42.122;24.734;2023-05-07T04:59:08;16.70;62.30
79762;DHT22;69249;42.122;24.734;2023-05-07T05:01:34;16.60;63.10
79762;DHT22;69249;42.122;24.734;2023-05-07T05:04:00;16.70;62.50
79762;DHT22;69249;42.122;24.734;2023-05-07T05:06:26;16.90;62.20
79762;DHT22;69249;42.122;24.734;2023-05-07T05:08:52;17.00;61.20
79762;DHT22;69249;42.122;24.734;2023-05-07T05:11:17;17.00;61.90
79762;DHT22;69249;42.122;24.734;2023-05-07T05:13:43;17.00;61.30
79762;DHT22;69249;42.122;24.734;2023-05-07T05:16:09;17.20;60.80
79762;DHT22;69249;42.122;24.734;2023-05-07T05:18:34;17.20;60.80
79762;DHT22;69249;42.122;24.734;2023-05-07T05:21:00;17.10;61.40
79762;DHT22;69249;42.122;24.734;2023-05-07T05:23:26;17.20;60.80
79762;DHT22;69249;42.122;24.734;2023-05-07T05:25:58;17.30;60.90
79762;DHT22;69249;42.122;24.734;2023-05-07T05:28:24;17.40;60.40
79762;DHT22;69249;42.122;24.734;2023-05-07T05:30:50;17.40;60.70
79762;DHT22;69249;42.122;24.734;2023-05-07T05:33:16;17.60;59.70
79762;DHT22;69249;42.122;24.734;2023-05-07T05:35:42;17.70;59.00
79762;DHT22;69249;42.122;24.734;2023-05-07T05:38:08;17.80;58.20
79762;DHT22;69249;42.122;24.734;2023-05-07T05:40:33;17.70;58.50
79762;DHT22;69249;42.122;24.734;2023-05-07T05:42:59;17.80;57.80
79762;DHT22;69249;42.122;24.734;2023-05-07T05:45:25;17.80;58.50
79762;DHT22;69249;42.122;24.734;2023-05-07T05:47:51;17.70;59.10
79762;DHT22;69249;42.122;24.734;2023-05-07T05:50:17;17.80;58.30
79762;DHT22;69249;42.122;24.734;2023-05-07T05:52:42;17.90;57.80
79762;DHT22;69249;42.122;24.734;2023-05-07T05:55:08;17.90;58.20
79762;DHT22;69249;42.122;24.734;2023-05-07T05:57:34;18.00;58.60
79762;DHT22;69249;42.122;24.734;2023-05-07T06:00:01;18.20;57.90
79762;DHT22;69249;42.122;24.734;2023-05-07T06:02:28;18.50;55.40
79762;DHT22;69249;42.122;24.734;2023-05-07T06:04:53;18.60;54.70
79762;DHT22;69249;42.122;24.734;2023-05-07T06:07:19;18.70;55.00
79762;DHT22;69249;42.122;24.734;2023-05-07T06:09:45;18.70;54.60
79762;DHT22;69249;42.122;24.734;2023-05-07T06:12:11;18.90;53.50
79762;DHT22;69249;42.122;24.734;2023-05-07T06:14:37;19.00;52.90
79762;DHT22;69249;42.122;24.734;2023-05-07T06:17:02;19.00;53.10
79762;DHT22;69249;42.122;24.734;2023-05-07T06:19:28;19.00;53.20
79762;DHT22;69249;42.122;24.734;2023-05-07T06:21:54;19.10;53.00
79762;DHT22;69249;42.122;24.734;2023-05-07T06:24:21;19.20;52.60
79762;DHT22;69249;42.122;24.734;2023-05-07T06:26:47;19.30;52.30
79762;DHT22;69249;42.122;24.734;2023-05-07T06:29:13;19.20;53.10
79762;DHT22;69249;42.122;24.734;2023-05-07T06:31:39;19.40;52.10
79762;DHT22;69249;42.122;24.734;2023-05-07T06:34:05;19.50;52.50
79762;DHT22;69249;42.122;24.734;2023-05-07T06:36:30;19.60;52.00
79762;DHT22;69249;42.122;24.734;2023-05-07T06:38:56;19.60;52.80
79762;DHT22;69249;42.122;24.734;2023-05-07T06:41:22;19.60;51.60
79762;DHT22;69249;42.122;24.734;2023-05-07T06:43:48;19.70;51.20
79762;DHT22;69249;42.122;24.734;2023-05-07T06:46:14;19.70;51.40
79762;DHT22;69249;42.122;24.734;2023-05-07T06:48:40;19.80;51.00
79762;DHT22;69249;42.122;24.734;2023-05-07T06:51:05;20.00;49.70
79762;DHT22;69249;42.122;24.734;2023-05-07T06:53:31;20.20;49.70
79762;DHT22;69249;42.122;24.734;2023-05-07T06:55:57;20.10;49.80
79762;DHT22;69249;42.122;24.734;2023-05-07T06:58:23;20.20;49.20
79762;DHT22;69249;42.122;24.734;2023-05-07T07:00:48;20.10;50.00
79762;DHT22;69249;42.122;24.734;2023-05-07T07:03:14;20.20;50.20
79762;DHT22;69249;42.122;24.734;2023-05-07T07:05:43;20.40;48.70
79762;DHT22;69249;42.122;24.734;2023-05-07T07:08:09;20.50;48.40
79762;DHT22;69249;42.122;24.734;2023-05-07T07:10:35;20.60;48.20
79762;DHT22;69249;42.122;24.734;2023-05-07T07:13:01;20.60;48.40
79762;DHT22;69249;42.122;24.734;2023-05-07T07:15:27;20.60;48.30
79762;DHT22;69249;42.122;24.734;2023-05-07T07:17:52;20.70;48.80
79762;DHT22;69249;42.122;24.734;2023-05-07T07:20:18;20.80;48.40
79762;DHT22;69249;42.122;24.734;2023-05-07T07:22:44;20.90;48.40
79762;DHT22;69249;42.122;24.734;2023-05-07T07:25:09;21.00;47.70
79762;DHT22;69249;42.122;24.734;2023-05-07T07:27:36;21.00;47.90
79762;DHT22;69249;42.122;24.734;2023-05-07T07:30:02;21.20;47.40
79762;DHT22;69249;42.122;24.734;2023-05-07T07:32:28;21.40;47.40
79762;DHT22;69249;42.122;24.734;2023-05-07T07:34:53;21.60;46.50
79762;DHT22;69249;42.122;24.734;2023-05-07T07:37:19;21.60;46.60
79762;DHT22;69249;42.122;24.734;2023-05-07T07:39:45;21.60;46.20
79762;DHT22;69249;42.122;24.734;2023-05-07T07:42:11;21.60;45.60
79762;DHT22;69249;42.122;24.734;2023-05-07T07:44:36;21.90;44.90
79762;DHT22;69249;42.122;24.734;2023-05-07T07:47:02;21.90;45.20
79762;DHT22;69249;42.122;24.734;2023-05-07T07:49:28;22.00;45.70
79762;DHT22;69249;42.122;24.734;2023-05-07T07:51:53;22.20;45.00
79762;DHT22;69249;42.122;24.734;2023-05-07T07:54:19;22.00;44.40
79762;DHT22;69249;42.122;24.734;2023-05-07T07:56:44;22.00;45.10
79762;DHT22;69249;42.122;24.734;2023-05-07T07:59:10;22.10;44.60
79762;DHT22;69249;42.122;24.734;2023-05-07T08:01:36;22.20;44.90
79762;DHT22;69249;42.122;24.734;2023-05-07T08:04:01;22.40;44.50
79762;DHT22;69249;42.122;24.734;2023-05-07T08:06:29;22.50;44.30
79762;DHT22;69249;42.122;24.734;2023-05-07T08:08:54;22.60;44.30
79762;DHT22;69249;42.122;24.734;2023-05-07T08:11:20;22.60;43.40
79762;DHT22;69249;42.122;24.734;2023-05-07T08:13:47;22.80;42.90
79762;DHT22;69249;42.122;24.734;2023-05-07T08:16:13;22.90;42.80
79762;DHT22;69249;42.122;24.734;2023-05-07T08:18:38;23.00;42.70
79762;DHT22;69249;42.122;24.734;2023-05-07T08:21:04;23.10;42.60
79762;DHT22;69249;42.122;24.734;2023-05-07T08:23:30;23.20;42.90
79762;DHT22;69249;42.122;24.734;2023-05-07T08:25:56;23.40;41.70
79762;DHT22;69249;42.122;24.734;2023-05-07T08:28:22;23.40;41.80
79762;DHT22;69249;42.122;24.734;2023-05-07T08:30:47;23.40;41.90
79762;DHT22;69249;42.122;24.734;2023-05-07T08:33:13;23.40;41.50
79762;DHT22;69249;42.122;24.734;2023-05-07T08:35:39;23.40;40.90
79762;DHT22;69249;42.122;24.734;2023-05-07T08:38:05;23.50;40.90
79762;DHT22;69249;42.122;24.734;2023-05-07T08:40:37;23.60;40.50
79762;DHT22;69249;42.122;24.734;2023-05-07T08:43:05;23.70;40.90
79762;DHT22;69249;42.122;24.734;2023-05-07T08:45:33;23.80;42.00
79762;DHT22;69249;42.122;24.734;2023-05-07T08:48:02;23.90;42.30
79762;DHT22;69249;42.122;24.734;2023-05-07T08:50:28;23.90;41.50
79762;DHT22;69249;42.122;24.734;2023-05-07T08:52:54;24.00;39.70
79762;DHT22;69249;42.122;24.734;2023-05-07T08:55:22;24.00;39.10
79762;DHT22;69249;42.122;24.734;2023-05-07T08:57:48;24.00;39.80
79762;DHT22;69249;42.122;24.734;2023-05-07T09:00:15;24.10;39.90
79762;DHT22;69249;42.122;24.734;2023-05-07T09:02:41;24.10;40.20
79762;DHT22;69249;42.122;24.734;2023-05-07T09:05:07;24.10;40.60
79762;DHT22;69249;42.122;24.734;2023-05-07T09:07:32;24.30;40.70
79762;DHT22;69249;42.122;24.734;2023-05-07T09:10:00;24.40;41.30
79762;DHT22;69249;42.122;24.734;2023-05-07T09:12:26;24.50;39.80
79762;DHT22;69249;42.122;24.734;2023-05-07T09:14:52;24.70;37.90
79762;DHT22;69249;42.122;24.734;2023-05-07T09:17:18;24.70;37.30
79762;DHT22;69249;42.122;24.734;2023-05-07T09:19:44;24.80;35.10
79762;DHT22;69249;42.122;24.734;2023-05-07T09:22:14;24.80;35.20
79762;DHT22;69249;42.122;24.734;2023-05-07T09:24:40;24.70;35.60
79762;DHT22;69249;42.122;24.734;2023-05-07T09:27:06;24.80;35.50
79762;DHT22;69249;42.122;24.734;2023-05-07T09:29:33;25.00;35.60
79762;DHT22;69249;42.122;24.734;2023-05-07T09:32:05;25.00;34.20
79762;DHT22;69249;42.122;24.734;2023-05-07T09:34:31;24.90;33.00
79762;DHT22;69249;42.122;24.734;2023-05-07T09:37:06;24.90;33.00
79762;DHT22;69249;42.122;24.734;2023-05-07T09:39:43;25.00;33.40
79762;DHT22;69249;42.122;24.734;2023-05-07T09:42:10;25.00;31.90
79762;DHT22;69249;42.122;24.734;2023-05-07T09:44:41;25.10;31.10
79762;DHT22;69249;42.122;24.734;2023-05-07T09:47:07;25.20;30.90
79762;DHT22;69249;42.122;24.734;2023-05-07T09:49:37;25.30;29.90
79762;DHT22;69249;42.122;24.734;2023-05-07T09:52:05;25.20;30.00
79762;DHT22;69249;42.122;24.734;2023-05-07T09:54:35;25.20;30.40
79762;DHT22;69249;42.122;24.734;2023-05-07T09:57:04;25.40;31.00
79762;DHT22;69249;42.122;24.734;2023-05-07T09:59:31;25.40;31.00
79762;DHT22;69249;42.122;24.734;2023-05-07T10:01:58;25.40;30.90
79762;DHT22;69249;42.122;24.734;2023-05-07T10:04:27;25.40;30.30
79762;DHT22;69249;42.122;24.734;2023-05-07T10:06:54;25.40;30.30
79762;DHT22;69249;42.122;24.734;2023-05-07T10:09:21;25.50;30.70
79762;DHT22;69249;42.122;24.734;2023-05-07T10:11:49;25.50;30.30
79762;DHT22;69249;42.122;24.734;2023-05-07T10:14:15;25.50;31.10
79762;DHT22;69249;42.122;24.734;2023-05-07T10:16:41;25.60;30.70
79762;DHT22;69249;42.122;24.734;2023-05-07T10:19:08;25.60;30.00
79762;DHT22;69249;42.122;24.734;2023-05-07T10:21:38;25.60;30.00
79762;DHT22;69249;42.122;24.734;2023-05-07T10:24:33;25.80;30.10
79762;DHT22;69249;42.122;24.734;2023-05-07T10:27:01;25.70;30.30
79762;DHT22;69249;42.122;24.734;2023-05-07T10:30:04;25.70;30.20
79762;DHT22;69249;42.122;24.734;2023-05-07T10:32:47;25.80;30.90
79762;DHT22;69249;42.122;24.734;2023-05-07T10:35:20;25.80;31.20
79762;DHT22;69249;42.122;24.734;2023-05-07T10:37:48;25.90;31.20
79762;DHT22;69249;42.122;24.734;2023-05-07T10:40:14;25.90;30.10
79762;DHT22;69249;42.122;24.734;2023-05-07T10:43:00;25.90;29.30
79762;DHT22;69249;42.122;24.734;2023-05-07T10:45:27;25.80;29.60
79762;DHT22;69249;42.122;24.734;2023-05-07T10:48:13;25.90;30.10
79762;DHT22;69249;42.122;24.734;2023-05-07T10:50:41;25.90;29.80
79762;DHT22;69249;42.122;24.734;2023-05-07T10:58:26;26.00;28.70
79762;DHT22;69249;42.122;24.734;2023-05-07T11:00:59;26.10;28.40
79762;DHT22;69249;42.122;24.734;2023-05-07T11:03:26;26.20;28.70
79762;DHT22;69249;42.122;24.734;2023-05-07T11:06:24;26.20;28.60
79762;DHT22;69249;42.122;24.734;2023-05-07T11:08:57;26.30;29.20
79762;DHT22;69249;42.122;24.734;2023-05-07T11:14:10;26.80;28.40
79762;DHT22;69249;42.122;24.734;2023-05-07T11:16:36;27.10;27.70
79762;DHT22;69249;42.122;24.734;2023-05-07T11:19:03;27.60;26.90
79762;DHT22;69249;42.122;24.734;2023-05-07T11:21:39;28.40;26.40
79762;DHT22;69249;42.122;24.734;2023-05-07T11:24:09;30.00;24.50
79762;DHT22;69249;42.122;24.734;2023-05-07T11:26:49;32.40;22.70
79762;DHT22;69249;42.122;24.734;2023-05-07T11:29:22;35.10;20.70
79762;DHT22;69249;42.122;24.734;2023-05-07T11:31:52;37.70;18.60
79762;DHT22;69249;42.122;24.734;2023-05-07T11:34:23;39.70;17.40
79762;DHT22;69249;42.122;24.734;2023-05-07T11:36:49;41.90;15.70
79762;DHT22;69249;42.122;24.734;2023-05-07T11:39:31;43.10;14.40
79762;DHT22;69249;42.122;24.734;2023-05-07T11:42:02;44.70;13.50
79762;DHT22;69249;42.122;24.734;2023-05-07T11:44:48;45.90;12.80
79762;DHT22;69249;42.122;24.734;2023-05-07T11:47:18;46.90;12.30
79762;DHT22;69249;42.122;24.734;2023-05-07T11:49:47;48.20;11.40
79762;DHT22;69249;42.122;24.734;2023-05-07T11:52:13;49.30;11.30
79762;DHT22;69249;42.122;24.734;2023-05-07T11:54:39;50.30;10.60
79762;DHT22;69249;42.122;24.734;2023-05-07T11:57:14;50.20;9.90
79762;DHT22;69249;42.122;24.734;2023-05-07T11:59:40;48.80;10.20
79762;DHT22;69249;42.122;24.734;2023-05-07T12:02:07;47.20;10.80
79762;DHT22;69249;42.122;24.734;2023-05-07T12:04:33;45.50;11.30
79762;DHT22;69249;42.122;24.734;2023-05-07T12:06:59;43.90;12.20
79762;DHT22;69249;42.122;24.734;2023-05-07T12:09:25;42.70;13.20
79762;DHT22;69249;42.122;24.734;2023-05-07T12:11:52;42.20;13.50
79762;DHT22;69249;42.122;24.734;2023-05-07T12:14:18;41.90;13.40
79762;DHT22;69249;42.122;24.734;2023-05-07T12:16:44;42.10;13.30
79762;DHT22;69249;42.122;24.734;2023-05-07T12:19:11;41.90;13.50
79762;DHT22;69249;42.122;24.734;2023-05-07T12:21:40;41.30;14.00
79762;DHT22;69249;42.122;24.734;2023-05-07T12:24:06;40.10;14.60
79762;DHT22;69249;42.122;24.734;2023-05-07T12:26:40;38.90;15.00
79762;DHT22;69249;42.122;24.734;2023-05-07T12:29:06;38.00;15.60
79762;DHT22;69249;42.122;24.734;2023-05-07T12:31:32;36.80;16.50
79762;DHT22;69249;42.122;24.734;2023-05-07T12:33:58;35.90;17.20
79762;DHT22;69249;42.122;24.734;2023-05-07T12:36:23;35.00;17.70
79762;DHT22;69249;42.122;24.734;2023-05-07T12:38:50;34.50;18.70
79762;DHT22;69249;42.122;24.734;2023-05-07T12:41:16;34.10;19.00
79762;DHT22;69249;42.122;24.734;2023-05-07T12:43:44;33.50;19.40
79762;DHT22;69249;42.122;24.734;2023-05-07T12:46:11;32.90;19.50
79762;DHT22;69249;42.122;24.734;2023-05-07T12:48:44;32.20;19.70
79762;DHT22;69249;42.122;24.734;2023-05-07T12:51:11;31.80;20.90
79762;DHT22;69249;42.122;24.734;2023-05-07T12:53:42;31.40;20.90
79762;DHT22;69249;42.122;24.734;2023-05-07T12:56:08;31.20;21.00
79762;DHT22;69249;42.122;24.734;2023-05-07T12:58:35;30.90;21.50
79762;DHT22;69249;42.122;24.734;2023-05-07T13:01:05;30.70;22.20
79762;DHT22;69249;42.122;24.734;2023-05-07T13:03:32;30.60;22.60
79762;DHT22;69249;42.122;24.734;2023-05-07T13:06:06;30.40;22.40
79762;DHT22;69249;42.122;24.734;2023-05-07T13:08:39;30.20;22.50
79762;DHT22;69249;42.122;24.734;2023-05-07T13:11:08;30.20;22.40
79762;DHT22;69249;42.122;24.734;2023-05-07T13:13:35;30.40;22.10
79762;DHT22;69249;42.122;24.734;2023-05-07T13:16:02;30.60;22.00
79762;DHT22;69249;42.122;24.734;2023-05-07T13:18:32;31.50;21.90
79762;DHT22;69249;42.122;24.734;2023-05-07T13:20:58;33.10;20.40
79762;DHT22;69249;42.122;24.734;2023-05-07T13:23:24;34.10;18.90
79762;DHT22;69249;42.122;24.734;2023-05-07T13:25:50;34.30;18.40
79762;DHT22;69249;42.122;24.734;2023-05-07T13:28:17;34.10;18.70
79762;DHT22;69249;42.122;24.734;2023-05-07T13:30:44;33.70;19.00
79762;DHT22;69249;42.122;24.734;2023-05-07T13:33:09;32.90;19.60
79762;DHT22;69249;42.122;24.734;2023-05-07T13:35:35;32.20;20.00
79762;DHT22;69249;42.122;24.734;2023-05-07T13:38:01;31.70;20.40
79762;DHT22;69249;42.122;24.734;2023-05-07T13:40:27;31.50;21.00
79762;DHT22;69249;42.122;24.734;2023-05-07T13:42:53;31.40;21.10
79762;DHT22;69249;42.122;24.734;2023-05-07T13:45:18;31.30;21.40
79762;DHT22;69249;42.122;24.734;2023-05-07T13:47:44;31.30;21.30
79762;DHT22;69249;42.122;24.734;2023-05-07T13:50:11;31.80;21.40
79762;DHT22;69249;42.122;24.734;2023-05-07T13:52:43;32.50;20.70
79762;DHT22;69249;42.122;24.734;2023-05-07T13:55:19;33.00;19.70
79762;DHT22;69249;42.122;24.734;2023-05-07T13:57:45;32.80;19.30
79762;DHT22;69249;42.122;24.734;2023-05-07T14:00:12;32.30;19.70
79762;DHT22;69249;42.122;24.734;2023-05-07T14:02:38;31.70;20.40
79762;DHT22;69249;42.122;24.734;2023-05-07T14:05:04;31.10;20.50
79762;DHT22;69249;42.122;24.734;2023-05-07T14:07:30;30.60;21.10
79762;DHT22;69249;42.122;24.734;2023-05-07T14:09:57;30.20;21.70
79762;DHT22;69249;42.122;24.734;2023-05-07T14:12:22;29.90;21.80
79762;DHT22;69249;42.122;24.734;2023-05-07T14:14:48;29.80;22.30
79762;DHT22;69249;42.122;24.734;2023-05-07T14:17:16;29.60;22.50
79762;DHT22;69249;42.122;24.734;2023-05-07T14:19:42;29.40;22.50
79762;DHT22;69249;42.122;24.734;2023-05-07T14:22:08;29.20;22.90
79762;DHT22;69249;42.122;24.734;2023-05-07T14:24:34;28.90;23.10
79762;DHT22;69249;42.122;24.734;2023-05-07T14:26:59;28.90;23.40
79762;DHT22;69249;42.122;24.734;2023-05-07T14:29:25;28.70;23.00
79762;DHT22;69249;42.122;24.734;2023-05-07T14:31:51;28.60;23.30
79762;DHT22;69249;42.122;24.734;2023-05-07T14:34:17;28.60;23.60
79762;DHT22;69249;42.122;24.734;2023-05-07T14:36:42;28.70;23.10
79762;DHT22;69249;42.122;24.734;2023-05-07T14:39:09;28.70;23.30
79762;DHT22;69249;42.122;24.734;2023-05-07T14:41:35;28.60;23.20
79762;DHT22;69249;42.122;24.734;2023-05-07T14:44:01;28.50;23.40
79762;DHT22;69249;42.122;24.734;2023-05-07T14:46:29;28.50;24.20
79762;DHT22;69249;42.122;24.734;2023-05-07T14:48:55;28.50;23.60
79762;DHT22;69249;42.122;24.734;2023-05-07T14:51:21;28.50;23.60
79762;DHT22;69249;42.122;24.734;2023-05-07T14:53:47;28.40;23.40
79762;DHT22;69249;42.122;24.734;2023-05-07T14:56:12;28.30;23.60
79762;DHT22;69249;42.122;24.734;2023-05-07T14:58:38;28.20;23.90
79762;DHT22;69249;42.122;24.734;2023-05-07T15:01:04;28.30;23.90
79762;DHT22;69249;42.122;24.734;2023-05-07T15:03:30;28.20;24.20
79762;DHT22;69249;42.122;24.734;2023-05-07T15:05:55;28.20;24.20
79762;DHT22;69249;42.122;24.734;2023-05-07T15:08:21;28.20;25.10
79762;DHT22;69249;42.122;24.734;2023-05-07T15:10:47;28.10;24.00
79762;DHT22;69249;42.122;24.734;2023-05-07T15:13:13;28.10;24.30
79762;DHT22;69249;42.122;24.734;2023-05-07T15:15:39;28.10;24.30
79762;DHT22;69249;42.122;24.734;2023-05-07T15:18:05;28.00;24.30
79762;DHT22;69249;42.122;24.734;2023-05-07T15:20:31;28.10;24.30
79762;DHT22;69249;42.122;24.734;2023-05-07T15:22:57;27.90;24.20
79762;DHT22;69249;42.122;24.734;2023-05-07T15:25:23;27.90;24.30